sensor_id;sensor_type;location;lat;lon;timestamp;P1;durP1;ratioP1;P2;durP2;ratioP2
65150;SDS011;51918;51.856;0.150;2023-02-10T00:02:17;22.55;;;8.77;;
65150;SDS011;51918;51.856;0.150;2023-02-10T00:07:19;17.67;;;7.57;;
65150;SDS011;51918;51.856;0.150;2023-02-10T00:12:19;19.83;;;7.18;;
65150;SDS011;51918;51.856;0.150;2023-02-10T00:17:20;21.15;;;7.65;;
65150;SDS011;51918;51.856;0.150;2023-02-10T00:22:22;16.15;;;6.30;;
65150;SDS011;51918;51.856;0.150;2023-02-10T00:27:22;11.77;;;6.32;;
65150;SDS011;51918;51.856;0.150;2023-02-10T00:32:23;13.60;;;6.95;;
65150;SDS011;51918;51.856;0.150;2023-02-10T00:37:25;12.45;;;6.25;;
65150;SDS011;51918;51.856;0.150;2023-02-10T00:42:25;15.25;;;6.63;;
65150;SDS011;51918;51.856;0.150;2023-02-10T00:47:26;16.67;;;7.13;;
65150;SDS011;51918;51.856;0.150;2023-02-10T00:52:28;15.07;;;7.38;;
65150;SDS011;51918;51.856;0.150;2023-02-10T00:57:28;11.50;;;6.70;;
65150;SDS011;51918;51.856;0.150;2023-02-10T01:02:29;19.30;;;7.50;;
65150;SDS011;51918;51.856;0.150;2023-02-10T01:07:31;25.77;;;9.20;;
65150;SDS011;51918;51.856;0.150;2023-02-10T01:12:32;17.77;;;7.63;;
65150;SDS011;51918;51.856;0.150;2023-02-10T01:17:32;20.75;;;7.95;;
65150;SDS011;51918;51.856;0.150;2023-02-10T01:22:34;14.75;;;7.13;;
65150;SDS011;51918;51.856;0.150;2023-02-10T01:32:36;15.90;;;8.77;;
65150;SDS011;51918;51.856;0.150;2023-02-10T01:37:38;20.33;;;8.55;;
65150;SDS011;51918;51.856;0.150;2023-02-10T01:42:38;20.77;;;7.93;;
65150;SDS011;51918;51.856;0.150;2023-02-10T01:47:39;16.33;;;8.40;;
65150;SDS011;51918;51.856;0.150;2023-02-10T01:52:42;19.73;;;8.57;;
65150;SDS011;51918;51.856;0.150;2023-02-10T01:57:44;16.50;;;6.57;;
65150;SDS011;51918;51.856;0.150;2023-02-10T02:02:45;22.63;;;8.77;;
65150;SDS011;51918;51.856;0.150;2023-02-10T02:07:48;16.55;;;8.40;;
65150;SDS011;51918;51.856;0.150;2023-02-10T02:12:51;18.30;;;7.75;;
65150;SDS011;51918;51.856;0.150;2023-02-10T02:17:57;18.75;;;7.65;;
65150;SDS011;51918;51.856;0.150;2023-02-10T02:23:13;18.65;;;6.90;;
65150;SDS011;51918;51.856;0.150;2023-02-10T02:33:27;18.30;;;7.35;;
65150;SDS011;51918;51.856;0.150;2023-02-10T02:38:37;18.58;;;7.38;;
65150;SDS011;51918;51.856;0.150;2023-02-10T02:43:38;17.33;;;7.13;;
65150;SDS011;51918;51.856;0.150;2023-02-10T02:48:46;13.82;;;6.70;;
65150;SDS011;51918;51.856;0.150;2023-02-10T02:53:58;12.65;;;6.88;;
65150;SDS011;51918;51.856;0.150;2023-02-10T02:59:08;14.63;;;6.13;;
65150;SDS011;51918;51.856;0.150;2023-02-10T03:04:16;11.27;;;7.10;;
65150;SDS011;51918;51.856;0.150;2023-02-10T03:09:17;15.70;;;6.97;;
65150;SDS011;51918;51.856;0.150;2023-02-10T03:14:17;19.10;;;8.40;;
65150;SDS011;51918;51.856;0.150;2023-02-10T03:19:19;18.83;;;8.20;;
65150;SDS011;51918;51.856;0.150;2023-02-10T03:24:20;20.75;;;8.77;;
65150;SDS011;51918;51.856;0.150;2023-02-10T03:29:20;20.05;;;7.45;;
65150;SDS011;51918;51.856;0.150;2023-02-10T03:34:22;17.40;;;7.95;;
65150;SDS011;51918;51.856;0.150;2023-02-10T03:39:23;16.83;;;8.18;;
65150;SDS011;51918;51.856;0.150;2023-02-10T03:44:24;15.00;;;7.90;;
65150;SDS011;51918;51.856;0.150;2023-02-10T03:49:26;15.55;;;7.90;;
65150;SDS011;51918;51.856;0.150;2023-02-10T03:54:26;17.75;;;7.85;;
65150;SDS011;51918;51.856;0.150;2023-02-10T03:59:27;16.75;;;7.95;;
65150;SDS011;51918;51.856;0.150;2023-02-10T04:04:29;15.27;;;8.23;;
65150;SDS011;51918;51.856;0.150;2023-02-10T04:09:29;16.23;;;7.30;;
65150;SDS011;51918;51.856;0.150;2023-02-10T04:14:30;23.25;;;9.73;;
65150;SDS011;51918;51.856;0.150;2023-02-10T04:19:32;17.77;;;7.82;;
65150;SDS011;51918;51.856;0.150;2023-02-10T04:24:33;15.60;;;8.27;;
65150;SDS011;51918;51.856;0.150;2023-02-10T04:29:33;20.98;;;7.90;;
65150;SDS011;51918;51.856;0.150;2023-02-10T04:34:35;18.80;;;9.00;;
65150;SDS011;51918;51.856;0.150;2023-02-10T04:39:36;18.20;;;8.02;;
65150;SDS011;51918;51.856;0.150;2023-02-10T04:44:36;21.00;;;8.77;;
65150;SDS011;51918;51.856;0.150;2023-02-10T04:49:38;17.95;;;8.55;;
65150;SDS011;51918;51.856;0.150;2023-02-10T04:54:39;18.05;;;8.80;;
65150;SDS011;51918;51.856;0.150;2023-02-10T04:59:39;19.23;;;9.63;;
65150;SDS011;51918;51.856;0.150;2023-02-10T05:04:41;19.83;;;9.30;;
65150;SDS011;51918;51.856;0.150;2023-02-10T05:09:42;17.98;;;8.80;;
65150;SDS011;51918;51.856;0.150;2023-02-10T05:14:42;19.95;;;8.82;;
65150;SDS011;51918;51.856;0.150;2023-02-10T05:19:44;17.80;;;7.82;;
65150;SDS011;51918;51.856;0.150;2023-02-10T05:24:45;17.85;;;8.32;;
65150;SDS011;51918;51.856;0.150;2023-02-10T05:29:45;17.52;;;7.78;;
65150;SDS011;51918;51.856;0.150;2023-02-10T05:34:47;22.58;;;8.68;;
65150;SDS011;51918;51.856;0.150;2023-02-10T05:39:48;19.20;;;8.40;;
65150;SDS011;51918;51.856;0.150;2023-02-10T05:44:48;21.40;;;8.18;;
65150;SDS011;51918;51.856;0.150;2023-02-10T05:49:50;19.67;;;8.43;;
65150;SDS011;51918;51.856;0.150;2023-02-10T05:54:51;18.95;;;8.82;;
65150;SDS011;51918;51.856;0.150;2023-02-10T05:59:51;27.38;;;9.20;;
65150;SDS011;51918;51.856;0.150;2023-02-10T06:04:53;18.17;;;7.65;;
65150;SDS011;51918;51.856;0.150;2023-02-10T06:09:54;13.43;;;8.35;;
65150;SDS011;51918;51.856;0.150;2023-02-10T06:14:55;15.38;;;7.82;;
65150;SDS011;51918;51.856;0.150;2023-02-10T06:19:56;16.00;;;8.10;;
65150;SDS011;51918;51.856;0.150;2023-02-10T06:24:57;17.80;;;8.85;;
65150;SDS011;51918;51.856;0.150;2023-02-10T06:29:58;21.58;;;8.43;;
65150;SDS011;51918;51.856;0.150;2023-02-10T06:35:00;19.50;;;9.68;;
65150;SDS011;51918;51.856;0.150;2023-02-10T06:40:00;17.02;;;8.27;;
65150;SDS011;51918;51.856;0.150;2023-02-10T06:45:01;24.50;;;9.90;;
65150;SDS011;51918;51.856;0.150;2023-02-10T06:50:03;22.73;;;9.55;;
65150;SDS011;51918;51.856;0.150;2023-02-10T06:55:05;17.00;;;9.15;;
65150;SDS011;51918;51.856;0.150;2023-02-10T07:00:08;17.67;;;9.25;;
65150;SDS011;51918;51.856;0.150;2023-02-10T07:05:13;23.15;;;9.43;;
65150;SDS011;51918;51.856;0.150;2023-02-10T07:10:13;20.30;;;8.70;;
65150;SDS011;51918;51.856;0.150;2023-02-10T07:15:14;18.08;;;8.73;;
65150;SDS011;51918;51.856;0.150;2023-02-10T07:20:17;17.50;;;9.75;;
65150;SDS011;51918;51.856;0.150;2023-02-10T07:25:18;19.20;;;9.30;;
65150;SDS011;51918;51.856;0.150;2023-02-10T07:30:19;21.75;;;9.80;;
65150;SDS011;51918;51.856;0.150;2023-02-10T07:35:21;24.90;;;11.15;;
65150;SDS011;51918;51.856;0.150;2023-02-10T07:40:23;21.10;;;11.73;;
65150;SDS011;51918;51.856;0.150;2023-02-10T07:45:24;28.83;;;13.68;;
65150;SDS011;51918;51.856;0.150;2023-02-10T07:50:26;22.52;;;10.63;;
65150;SDS011;51918;51.856;0.150;2023-02-10T07:55:26;22.42;;;10.50;;
65150;SDS011;51918;51.856;0.150;2023-02-10T08:00:27;16.60;;;9.85;;
65150;SDS011;51918;51.856;0.150;2023-02-10T08:05:29;18.48;;;9.88;;
65150;SDS011;51918;51.856;0.150;2023-02-10T08:10:30;22.65;;;10.52;;
65150;SDS011;51918;51.856;0.150;2023-02-10T08:15:31;25.88;;;13.15;;
65150;SDS011;51918;51.856;0.150;2023-02-10T08:20:33;21.27;;;10.32;;
65150;SDS011;51918;51.856;0.150;2023-02-10T08:25:33;16.23;;;9.30;;
65150;SDS011;51918;51.856;0.150;2023-02-10T08:30:35;22.60;;;9.45;;
65150;SDS011;51918;51.856;0.150;2023-02-10T08:35:37;23.25;;;9.43;;
65150;SDS011;51918;51.856;0.150;2023-02-10T08:40:39;24.10;;;9.60;;
65150;SDS011;51918;51.856;0.150;2023-02-10T08:45:40;20.98;;;9.13;;
65150;SDS011;51918;51.856;0.150;2023-02-10T08:50:42;19.73;;;8.73;;
65150;SDS011;51918;51.856;0.150;2023-02-10T08:55:43;21.13;;;9.65;;
65150;SDS011;51918;51.856;0.150;2023-02-10T09:00:44;23.10;;;10.43;;
65150;SDS011;51918;51.856;0.150;2023-02-10T09:05:46;20.73;;;8.30;;
65150;SDS011;51918;51.856;0.150;2023-02-10T09:10:46;19.20;;;6.93;;
65150;SDS011;51918;51.856;0.150;2023-02-10T09:15:47;15.48;;;7.03;;
65150;SDS011;51918;51.856;0.150;2023-02-10T09:20:49;15.30;;;8.15;;
65150;SDS011;51918;51.856;0.150;2023-02-10T09:25:52;20.65;;;8.18;;
65150;SDS011;51918;51.856;0.150;2023-02-10T09:30:53;18.65;;;7.47;;
65150;SDS011;51918;51.856;0.150;2023-02-10T09:35:55;14.80;;;8.55;;
65150;SDS011;51918;51.856;0.150;2023-02-10T09:40:58;16.90;;;8.85;;
65150;SDS011;51918;51.856;0.150;2023-02-10T09:46:08;19.05;;;9.07;;
65150;SDS011;51918;51.856;0.150;2023-02-10T09:56:26;15.70;;;8.40;;
65150;SDS011;51918;51.856;0.150;2023-02-10T10:01:28;14.02;;;8.65;;
65150;SDS011;51918;51.856;0.150;2023-02-10T10:06:33;20.67;;;9.02;;
65150;SDS011;51918;51.856;0.150;2023-02-10T10:11:36;16.50;;;8.95;;
65150;SDS011;51918;51.856;0.150;2023-02-10T10:22:19;14.02;;;7.10;;
65150;SDS011;51918;51.856;0.150;2023-02-10T10:27:37;12.90;;;6.32;;
65150;SDS011;51918;51.856;0.150;2023-02-10T10:32:51;9.60;;;4.80;;
65150;SDS011;51918;51.856;0.150;2023-02-10T10:37:57;10.68;;;4.93;;
65150;SDS011;51918;51.856;0.150;2023-02-10T10:42:59;10.95;;;4.88;;
65150;SDS011;51918;51.856;0.150;2023-02-10T10:48:01;14.90;;;4.32;;
65150;SDS011;51918;51.856;0.150;2023-02-10T10:53:14;12.85;;;4.60;;
65150;SDS011;51918;51.856;0.150;2023-02-10T10:58:20;10.45;;;4.43;;
65150;SDS011;51918;51.856;0.150;2023-02-10T11:03:25;8.60;;;3.40;;
65150;SDS011;51918;51.856;0.150;2023-02-10T11:08:29;7.40;;;2.28;;
65150;SDS011;51918;51.856;0.150;2023-02-10T11:13:32;7.35;;;2.20;;
65150;SDS011;51918;51.856;0.150;2023-02-10T11:18:35;14.75;;;2.10;;
65150;SDS011;51918;51.856;0.150;2023-02-10T11:23:45;8.02;;;2.20;;
65150;SDS011;51918;51.856;0.150;2023-02-10T11:28:48;6.78;;;2.10;;
65150;SDS011;51918;51.856;0.150;2023-02-10T11:38:59;6.85;;;1.98;;
65150;SDS011;51918;51.856;0.150;2023-02-10T11:44:02;5.72;;;2.65;;
65150;SDS011;51918;51.856;0.150;2023-02-10T11:49:17;7.63;;;2.42;;
65150;SDS011;51918;51.856;0.150;2023-02-10T11:54:19;5.78;;;2.58;;
65150;SDS011;51918;51.856;0.150;2023-02-10T11:59:23;5.28;;;1.83;;
65150;SDS011;51918;51.856;0.150;2023-02-10T12:09:59;6.28;;;1.65;;
65150;SDS011;51918;51.856;0.150;2023-02-10T12:15:07;5.10;;;1.85;;
65150;SDS011;51918;51.856;0.150;2023-02-10T12:20:23;11.65;;;3.38;;
65150;SDS011;51918;51.856;0.150;2023-02-10T12:25:35;7.90;;;2.45;;
65150;SDS011;51918;51.856;0.150;2023-02-10T12:30:43;6.88;;;1.60;;
65150;SDS011;51918;51.856;0.150;2023-02-10T12:35:52;7.97;;;1.98;;
65150;SDS011;51918;51.856;0.150;2023-02-10T12:41:03;6.35;;;1.95;;
65150;SDS011;51918;51.856;0.150;2023-02-10T12:46:14;8.45;;;2.00;;
65150;SDS011;51918;51.856;0.150;2023-02-10T12:51:27;7.40;;;2.00;;
65150;SDS011;51918;51.856;0.150;2023-02-10T12:56:40;7.53;;;1.70;;
65150;SDS011;51918;51.856;0.150;2023-02-10T13:01:46;8.77;;;1.70;;
65150;SDS011;51918;51.856;0.150;2023-02-10T13:06:52;6.28;;;2.35;;
65150;SDS011;51918;51.856;0.150;2023-02-10T13:12:12;9.40;;;1.90;;
65150;SDS011;51918;51.856;0.150;2023-02-10T13:17:17;6.18;;;1.55;;
65150;SDS011;51918;51.856;0.150;2023-02-10T13:22:19;10.40;;;1.83;;
65150;SDS011;51918;51.856;0.150;2023-02-10T13:27:32;10.00;;;2.67;;
65150;SDS011;51918;51.856;0.150;2023-02-10T13:32:49;7.75;;;2.10;;
65150;SDS011;51918;51.856;0.150;2023-02-10T13:37:57;8.25;;;2.28;;
65150;SDS011;51918;51.856;0.150;2023-02-10T13:43:06;5.97;;;2.10;;
65150;SDS011;51918;51.856;0.150;2023-02-10T13:48:24;7.70;;;1.88;;
65150;SDS011;51918;51.856;0.150;2023-02-10T13:53:30;5.93;;;1.90;;
65150;SDS011;51918;51.856;0.150;2023-02-10T13:58:48;7.90;;;2.22;;
65150;SDS011;51918;51.856;0.150;2023-02-10T14:03:53;8.10;;;2.53;;
65150;SDS011;51918;51.856;0.150;2023-02-10T14:09:01;10.57;;;3.20;;
65150;SDS011;51918;51.856;0.150;2023-02-10T14:14:15;8.32;;;1.90;;
65150;SDS011;51918;51.856;0.150;2023-02-10T14:19:23;6.75;;;2.67;;
65150;SDS011;51918;51.856;0.150;2023-02-10T14:24:29;9.10;;;2.20;;
65150;SDS011;51918;51.856;0.150;2023-02-10T14:29:33;11.05;;;2.53;;
65150;SDS011;51918;51.856;0.150;2023-02-10T14:34:35;7.18;;;2.38;;
65150;SDS011;51918;51.856;0.150;2023-02-10T14:39:36;7.00;;;2.65;;
65150;SDS011;51918;51.856;0.150;2023-02-10T14:44:39;12.20;;;3.08;;
65150;SDS011;51918;51.856;0.150;2023-02-10T14:49:43;9.02;;;2.55;;
65150;SDS011;51918;51.856;0.150;2023-02-10T14:54:48;13.57;;;2.42;;
65150;SDS011;51918;51.856;0.150;2023-02-10T14:59:53;6.18;;;2.10;;
65150;SDS011;51918;51.856;0.150;2023-02-10T15:04:56;7.50;;;2.22;;
65150;SDS011;51918;51.856;0.150;2023-02-10T15:09:59;7.85;;;2.20;;
65150;SDS011;51918;51.856;0.150;2023-02-10T15:15:13;8.05;;;2.33;;
65150;SDS011;51918;51.856;0.150;2023-02-10T15:20:22;11.73;;;2.08;;
65150;SDS011;51918;51.856;0.150;2023-02-10T15:25:29;7.03;;;1.90;;
65150;SDS011;51918;51.856;0.150;2023-02-10T15:30:40;9.30;;;1.98;;
65150;SDS011;51918;51.856;0.150;2023-02-10T15:35:50;5.60;;;1.98;;
65150;SDS011;51918;51.856;0.150;2023-02-10T15:40:52;6.43;;;1.50;;
65150;SDS011;51918;51.856;0.150;2023-02-10T15:46:06;4.10;;;1.70;;
65150;SDS011;51918;51.856;0.150;2023-02-10T15:51:16;9.48;;;2.10;;
65150;SDS011;51918;51.856;0.150;2023-02-10T15:56:21;8.15;;;2.28;;
65150;SDS011;51918;51.856;0.150;2023-02-10T16:01:23;9.18;;;2.45;;
65150;SDS011;51918;51.856;0.150;2023-02-10T16:16:26;9.00;;;2.30;;
65150;SDS011;51918;51.856;0.150;2023-02-10T16:21:27;7.18;;;2.45;;
65150;SDS011;51918;51.856;0.150;2023-02-10T16:26:27;4.07;;;1.80;;
65150;SDS011;51918;51.856;0.150;2023-02-10T16:31:29;7.53;;;2.33;;
65150;SDS011;51918;51.856;0.150;2023-02-10T16:41:30;8.53;;;2.30;;
65150;SDS011;51918;51.856;0.150;2023-02-10T16:46:32;15.35;;;3.85;;
65150;SDS011;51918;51.856;0.150;2023-02-10T16:51:33;7.75;;;3.17;;
65150;SDS011;51918;51.856;0.150;2023-02-10T16:56:34;9.85;;;3.30;;
65150;SDS011;51918;51.856;0.150;2023-02-10T17:01:36;8.18;;;3.72;;
65150;SDS011;51918;51.856;0.150;2023-02-10T17:11:41;14.10;;;4.70;;
65150;SDS011;51918;51.856;0.150;2023-02-10T17:16:44;26.00;;;7.97;;
65150;SDS011;51918;51.856;0.150;2023-02-10T17:21:46;18.73;;;6.07;;
65150;SDS011;51918;51.856;0.150;2023-02-10T17:26:47;20.92;;;8.88;;
65150;SDS011;51918;51.856;0.150;2023-02-10T17:31:49;14.10;;;6.03;;
65150;SDS011;51918;51.856;0.150;2023-02-10T17:41:50;11.73;;;5.50;;
65150;SDS011;51918;51.856;0.150;2023-02-10T17:46:52;15.50;;;6.13;;
65150;SDS011;51918;51.856;0.150;2023-02-10T17:51:53;11.68;;;4.80;;
65150;SDS011;51918;51.856;0.150;2023-02-10T17:56:54;11.10;;;4.65;;
65150;SDS011;51918;51.856;0.150;2023-02-10T18:01:56;12.13;;;5.22;;
65150;SDS011;51918;51.856;0.150;2023-02-10T18:06:57;16.45;;;6.47;;
65150;SDS011;51918;51.856;0.150;2023-02-10T18:11:57;12.48;;;5.03;;
65150;SDS011;51918;51.856;0.150;2023-02-10T18:16:59;11.10;;;4.50;;
65150;SDS011;51918;51.856;0.150;2023-02-10T18:22:01;6.82;;;3.30;;
65150;SDS011;51918;51.856;0.150;2023-02-10T18:27:02;9.82;;;3.70;;
65150;SDS011;51918;51.856;0.150;2023-02-10T18:32:04;8.15;;;4.20;;
65150;SDS011;51918;51.856;0.150;2023-02-10T18:37:05;12.32;;;4.80;;
65150;SDS011;51918;51.856;0.150;2023-02-10T18:42:06;9.30;;;4.18;;
65150;SDS011;51918;51.856;0.150;2023-02-10T18:47:08;7.15;;;3.50;;
65150;SDS011;51918;51.856;0.150;2023-02-10T18:52:08;12.52;;;3.80;;
65150;SDS011;51918;51.856;0.150;2023-02-10T18:57:09;6.85;;;3.60;;
65150;SDS011;51918;51.856;0.150;2023-02-10T19:02:12;10.38;;;4.97;;
65150;SDS011;51918;51.856;0.150;2023-02-10T19:07:13;11.27;;;4.22;;
65150;SDS011;51918;51.856;0.150;2023-02-10T19:12:13;7.57;;;3.70;;
65150;SDS011;51918;51.856;0.150;2023-02-10T19:17:15;5.97;;;2.97;;
65150;SDS011;51918;51.856;0.150;2023-02-10T19:22:16;7.32;;;4.03;;
65150;SDS011;51918;51.856;0.150;2023-02-10T19:27:17;8.05;;;3.03;;
65150;SDS011;51918;51.856;0.150;2023-02-10T19:32:19;5.90;;;2.88;;
65150;SDS011;51918;51.856;0.150;2023-02-10T19:37:20;8.20;;;3.63;;
65150;SDS011;51918;51.856;0.150;2023-02-10T19:42:21;4.70;;;3.33;;
65150;SDS011;51918;51.856;0.150;2023-02-10T19:47:23;7.25;;;3.30;;
65150;SDS011;51918;51.856;0.150;2023-02-10T19:57:24;8.80;;;3.40;;
65150;SDS011;51918;51.856;0.150;2023-02-10T20:02:26;10.93;;;3.63;;
65150;SDS011;51918;51.856;0.150;2023-02-10T20:07:26;6.95;;;3.13;;
65150;SDS011;51918;51.856;0.150;2023-02-10T20:12:27;10.52;;;3.92;;
65150;SDS011;51918;51.856;0.150;2023-02-10T20:17:29;8.50;;;4.18;;
65150;SDS011;51918;51.856;0.150;2023-02-10T20:32:32;7.72;;;3.55;;
65150;SDS011;51918;51.856;0.150;2023-02-10T20:42:32;9.13;;;3.83;;
65150;SDS011;51918;51.856;0.150;2023-02-10T20:47:34;7.80;;;4.07;;
65150;SDS011;51918;51.856;0.150;2023-02-10T20:52:35;6.25;;;3.88;;
65150;SDS011;51918;51.856;0.150;2023-02-10T20:57:36;7.95;;;4.05;;
65150;SDS011;51918;51.856;0.150;2023-02-10T21:02:38;6.65;;;4.07;;
65150;SDS011;51918;51.856;0.150;2023-02-10T21:07:38;7.03;;;3.90;;
65150;SDS011;51918;51.856;0.150;2023-02-10T21:12:39;9.93;;;4.70;;
65150;SDS011;51918;51.856;0.150;2023-02-10T21:17:41;10.63;;;4.65;;
65150;SDS011;51918;51.856;0.150;2023-02-10T21:22:42;9.43;;;4.57;;
65150;SDS011;51918;51.856;0.150;2023-02-10T21:27:42;7.63;;;4.47;;
65150;SDS011;51918;51.856;0.150;2023-02-10T21:32:44;6.40;;;4.63;;
65150;SDS011;51918;51.856;0.150;2023-02-10T21:37:45;9.50;;;4.65;;
65150;SDS011;51918;51.856;0.150;2023-02-10T21:42:45;9.25;;;4.97;;
65150;SDS011;51918;51.856;0.150;2023-02-10T21:47:47;14.93;;;5.80;;
65150;SDS011;51918;51.856;0.150;2023-02-10T21:57:49;9.48;;;5.53;;
65150;SDS011;51918;51.856;0.150;2023-02-10T22:02:51;12.80;;;5.88;;
65150;SDS011;51918;51.856;0.150;2023-02-10T22:07:51;13.63;;;6.60;;
65150;SDS011;51918;51.856;0.150;2023-02-10T22:12:52;17.30;;;8.27;;
65150;SDS011;51918;51.856;0.150;2023-02-10T22:17:54;13.40;;;6.85;;
65150;SDS011;51918;51.856;0.150;2023-02-10T22:22:54;10.93;;;6.50;;
65150;SDS011;51918;51.856;0.150;2023-02-10T22:27:55;9.68;;;6.07;;
65150;SDS011;51918;51.856;0.150;2023-02-10T22:32:57;10.93;;;6.50;;
65150;SDS011;51918;51.856;0.150;2023-02-10T22:42:58;12.85;;;6.20;;
65150;SDS011;51918;51.856;0.150;2023-02-10T22:48:00;13.95;;;6.97;;
65150;SDS011;51918;51.856;0.150;2023-02-10T22:53:01;12.95;;;7.07;;
65150;SDS011;51918;51.856;0.150;2023-02-10T22:58:01;10.25;;;6.10;;
65150;SDS011;51918;51.856;0.150;2023-02-10T23:03:03;10.90;;;5.85;;
65150;SDS011;51918;51.856;0.150;2023-02-10T23:13:04;13.50;;;6.93;;
65150;SDS011;51918;51.856;0.150;2023-02-10T23:18:06;13.45;;;7.68;;
65150;SDS011;51918;51.856;0.150;2023-02-10T23:23:07;19.73;;;9.45;;
65150;SDS011;51918;51.856;0.150;2023-02-10T23:28:07;15.85;;;8.15;;
65150;SDS011;51918;51.856;0.150;2023-02-10T23:33:09;15.40;;;8.63;;
65150;SDS011;51918;51.856;0.150;2023-02-10T23:38:10;16.85;;;8.00;;
65150;SDS011;51918;51.856;0.150;2023-02-10T23:43:11;17.50;;;8.50;;
65150;SDS011;51918;51.856;0.150;2023-02-10T23:48:13;19.02;;;8.38;;
65150;SDS011;51918;51.856;0.150;2023-02-10T23:53:14;15.00;;;6.93;;
65150;SDS011;51918;51.856;0.150;2023-02-10T23:58:15;16.95;;;8.45;;
